sensor_id;sensor_type;location;lat;lon;timestamp;pressure;altitude;pressure_sealevel;temperature;humidity
59877;BME280;74472;51.140;17.184;2024-03-23T00:54:02;99356.09;;;11.45;82.97
59877;BME280;74472;51.140;17.184;2024-03-23T00:56:28;99357.19;;;11.43;82.91
59877;BME280;74472;51.140;17.184;2024-03-23T00:58:53;99347.75;;;11.40;83.02
59877;BME280;74472;51.140;17.184;2024-03-23T01:01:19;99352.31;;;11.48;83.02
59877;BME280;74472;51.140;17.184;2024-03-23T01:03:44;99342.34;;;11.42;83.20
59877;BME280;74472;51.140;17.184;2024-03-23T01:06:09;99334.81;;;11.37;83.47
59877;BME280;74472;51.140;17.184;2024-03-23T01:08:35;99342.28;;;11.51;83.36
59877;BME280;74472;51.140;17.184;2024-03-23T01:11:01;99325.63;;;11.51;83.52
59877;BME280;74472;51.140;17.184;2024-03-23T01:13:28;99319.09;;;11.55;83.57
59877;BME280;74472;51.140;17.184;2024-03-23T01:15:55;99334.06;;;11.64;83.49
59877;BME280;74472;51.140;17.184;2024-03-23T01:18:21;99321.28;;;11.69;83.49
59877;BME280;74472;51.140;17.184;2024-03-23T01:20:47;99317.53;;;11.72;83.36
59877;BME280;74472;51.140;17.184;2024-03-23T01:23:12;99301.53;;;11.64;83.40
59877;BME280;74472;51.140;17.184;2024-03-23T01:25:38;99296.13;;;11.65;83.49
59877;BME280;74472;51.140;17.184;2024-03-23T01:28:04;99306.50;;;11.77;83.31
59877;BME280;74472;51.140;17.184;2024-03-23T01:30:29;99306.69;;;11.85;83.07
59877;BME280;74472;51.140;17.184;2024-03-23T01:32:55;99302.06;;;11.87;82.90
59877;BME280;74472;51.140;17.184;2024-03-23T01:35:21;99284.09;;;11.81;83.03
59877;BME280;74472;51.140;17.184;2024-03-23T01:37:46;99285.09;;;11.80;82.91
59877;BME280;74472;51.140;17.184;2024-03-23T01:40:12;99280.78;;;11.79;82.96
59877;BME280;74472;51.140;17.184;2024-03-23T01:42:39;99276.06;;;11.72;82.71
59877;BME280;74472;51.140;17.184;2024-03-23T01:45:07;99268.44;;;11.69;83.18
59877;BME280;74472;51.140;17.184;2024-03-23T01:47:33;99260.50;;;11.69;82.95
59877;BME280;74472;51.140;17.184;2024-03-23T01:49:58;99249.53;;;11.64;83.13
59877;BME280;74472;51.140;17.184;2024-03-23T01:52:24;99253.03;;;11.65;82.73
59877;BME280;74472;51.140;17.184;2024-03-23T01:54:50;99248.31;;;11.59;83.22
59877;BME280;74472;51.140;17.184;2024-03-23T01:57:15;99245.66;;;11.59;82.96
59877;BME280;74472;51.140;17.184;2024-03-23T01:59:41;99244.13;;;11.56;83.33
59877;BME280;74472;51.140;17.184;2024-03-23T02:02:06;99237.88;;;11.57;83.39
59877;BME280;74472;51.140;17.184;2024-03-23T02:04:31;99234.97;;;11.50;83.35
59877;BME280;74472;51.140;17.184;2024-03-23T02:06:57;99233.59;;;11.46;83.49
59877;BME280;74472;51.140;17.184;2024-03-23T02:09:22;99230.13;;;11.46;83.41
59877;BME280;74472;51.140;17.184;2024-03-23T02:11:47;99240.00;;;11.44;83.29
59877;BME280;74472;51.140;17.184;2024-03-23T02:14:13;99224.44;;;11.41;83.50
59877;BME280;74472;51.140;17.184;2024-03-23T02:16:38;99226.25;;;11.40;83.49
59877;BME280;74472;51.140;17.184;2024-03-23T02:19:03;99219.31;;;11.39;83.38
59877;BME280;74472;51.140;17.184;2024-03-23T02:21:28;99217.50;;;11.40;83.48
59877;BME280;74472;51.140;17.184;2024-03-23T02:23:57;99213.88;;;11.41;83.40
59877;BME280;74472;51.140;17.184;2024-03-23T02:26:22;99218.47;;;11.39;83.50
59877;BME280;74472;51.140;17.184;2024-03-23T02:28:47;99200.13;;;11.37;83.28
59877;BME280;74472;51.140;17.184;2024-03-23T02:31:12;99202.78;;;11.27;83.47
59877;BME280;74472;51.140;17.184;2024-03-23T02:33:38;99203.22;;;11.23;83.79
59877;BME280;74472;51.140;17.184;2024-03-23T02:36:04;99192.78;;;11.21;83.70
59877;BME280;74472;51.140;17.184;2024-03-23T02:38:29;99178.50;;;11.14;83.63
59877;BME280;74472;51.140;17.184;2024-03-23T02:40:54;99185.88;;;11.11;83.48
59877;BME280;74472;51.140;17.184;2024-03-23T02:43:20;99181.69;;;11.08;83.88
59877;BME280;74472;51.140;17.184;2024-03-23T02:45:45;99188.94;;;11.06;84.15
59877;BME280;74472;51.140;17.184;2024-03-23T02:48:10;99180.75;;;11.09;84.06
59877;BME280;74472;51.140;17.184;2024-03-23T02:50:36;99179.31;;;11.15;84.41
59877;BME280;74472;51.140;17.184;2024-03-23T02:53:01;99178.47;;;11.24;83.94
59877;BME280;74472;51.140;17.184;2024-03-23T02:55:26;99177.66;;;11.23;84.01
59877;BME280;74472;51.140;17.184;2024-03-23T02:57:52;99181.66;;;11.27;83.85
59877;BME280;74472;51.140;17.184;2024-03-23T03:00:17;99172.91;;;11.27;83.78
59877;BME280;74472;51.140;17.184;2024-03-23T03:02:42;99170.09;;;11.28;84.01
59877;BME280;74472;51.140;17.184;2024-03-23T03:05:08;99163.88;;;11.30;83.71
59877;BME280;74472;51.140;17.184;2024-03-23T03:07:34;99157.75;;;11.29;83.55
59877;BME280;74472;51.140;17.184;2024-03-23T03:09:59;99145.97;;;11.23;83.70
59877;BME280;74472;51.140;17.184;2024-03-23T03:12:24;99153.34;;;11.20;83.88
59877;BME280;74472;51.140;17.184;2024-03-23T03:14:50;99146.53;;;11.17;84.00
59877;BME280;74472;51.140;17.184;2024-03-23T03:17:15;99136.66;;;11.19;84.00
59877;BME280;74472;51.140;17.184;2024-03-23T03:19:40;99135.41;;;11.23;83.94
59877;BME280;74472;51.140;17.184;2024-03-23T03:22:06;99137.88;;;11.25;83.81
59877;BME280;74472;51.140;17.184;2024-03-23T03:24:31;99134.81;;;11.30;83.88
59877;BME280;74472;51.140;17.184;2024-03-23T03:26:56;99132.44;;;11.36;84.02
59877;BME280;74472;51.140;17.184;2024-03-23T03:29:23;99134.03;;;11.47;83.81
59877;BME280;74472;51.140;17.184;2024-03-23T03:31:49;99124.84;;;11.51;83.66
59877;BME280;74472;51.140;17.184;2024-03-23T03:34:15;99120.53;;;11.50;83.46
59877;BME280;74472;51.140;17.184;2024-03-23T03:36:40;99123.03;;;11.51;83.32
59877;BME280;74472;51.140;17.184;2024-03-23T03:39:06;99121.09;;;11.54;83.38
59877;BME280;74472;51.140;17.184;2024-03-23T03:41:32;99117.31;;;11.56;83.49
59877;BME280;74472;51.140;17.184;2024-03-23T03:43:57;99099.66;;;11.57;83.43
59877;BME280;74472;51.140;17.184;2024-03-23T03:46:27;99109.09;;;11.59;83.25
59877;BME280;74472;51.140;17.184;2024-03-23T03:48:52;99107.13;;;11.61;83.17
59877;BME280;74472;51.140;17.184;2024-03-23T03:51:17;99108.00;;;11.62;83.28
59877;BME280;74472;51.140;17.184;2024-03-23T03:53:42;99110.63;;;11.62;83.03
59877;BME280;74472;51.140;17.184;2024-03-23T03:56:08;99098.53;;;11.59;82.99
59877;BME280;74472;51.140;17.184;2024-03-23T03:58:33;99105.19;;;11.63;83.18
59877;BME280;74472;51.140;17.184;2024-03-23T04:00:58;99106.84;;;11.64;83.10
59877;BME280;74472;51.140;17.184;2024-03-23T04:03:24;99096.56;;;11.61;83.08
59877;BME280;74472;51.140;17.184;2024-03-23T04:05:52;99090.44;;;11.61;82.80
59877;BME280;74472;51.140;17.184;2024-03-23T04:08:18;99081.84;;;11.59;83.05
59877;BME280;74472;51.140;17.184;2024-03-23T04:10:44;99086.69;;;11.63;83.02
59877;BME280;74472;51.140;17.184;2024-03-23T04:13:10;99092.78;;;11.64;83.17
59877;BME280;74472;51.140;17.184;2024-03-23T04:15:36;99083.91;;;11.65;83.26
59877;BME280;74472;51.140;17.184;2024-03-23T04:18:02;99087.38;;;11.65;82.78
59877;BME280;74472;51.140;17.184;2024-03-23T04:20:27;99088.88;;;11.68;82.92
59877;BME280;74472;51.140;17.184;2024-03-23T04:22:52;99092.06;;;11.71;82.96
59877;BME280;74472;51.140;17.184;2024-03-23T04:25:18;99092.75;;;11.73;82.82
59877;BME280;74472;51.140;17.184;2024-03-23T04:27:44;99097.91;;;11.75;82.97
59877;BME280;74472;51.140;17.184;2024-03-23T04:30:10;99096.75;;;11.78;83.08
59877;BME280;74472;51.140;17.184;2024-03-23T04:32:39;99094.09;;;11.78;82.95
59877;BME280;74472;51.140;17.184;2024-03-23T04:35:05;99088.81;;;11.78;82.85
59877;BME280;74472;51.140;17.184;2024-03-23T04:37:34;99092.84;;;11.82;82.63
59877;BME280;74472;51.140;17.184;2024-03-23T04:40:00;99097.28;;;11.81;82.69
59877;BME280;74472;51.140;17.184;2024-03-23T04:42:26;99088.81;;;11.78;82.64
59877;BME280;74472;51.140;17.184;2024-03-23T04:44:52;99092.31;;;11.78;82.64
59877;BME280;74472;51.140;17.184;2024-03-23T04:47:18;99088.97;;;11.76;82.65
59877;BME280;74472;51.140;17.184;2024-03-23T04:49:43;99086.47;;;11.74;82.79
59877;BME280;74472;51.140;17.184;2024-03-23T04:52:08;99076.66;;;11.67;82.66
59877;BME280;74472;51.140;17.184;2024-03-23T04:54:34;99071.00;;;11.62;82.38
59877;BME280;74472;51.140;17.184;2024-03-23T04:56:59;99077.28;;;11.51;82.88
59877;BME280;74472;51.140;17.184;2024-03-23T04:59:25;99074.94;;;11.48;82.99
59877;BME280;74472;51.140;17.184;2024-03-23T05:01:50;99075.09;;;11.46;83.19
59877;BME280;74472;51.140;17.184;2024-03-23T05:04:15;99068.69;;;11.49;82.83
59877;BME280;74472;51.140;17.184;2024-03-23T05:06:40;99066.34;;;11.46;83.10
59877;BME280;74472;51.140;17.184;2024-03-23T05:09:06;99060.91;;;11.47;83.00
59877;BME280;74472;51.140;17.184;2024-03-23T05:11:32;99059.38;;;11.45;82.94
59877;BME280;74472;51.140;17.184;2024-03-23T05:13:58;99058.84;;;11.41;82.87
59877;BME280;74472;51.140;17.184;2024-03-23T05:16:23;99054.72;;;11.39;82.87
59877;BME280;74472;51.140;17.184;2024-03-23T05:18:49;99047.09;;;11.36;82.92
59877;BME280;74472;51.140;17.184;2024-03-23T05:21:14;99048.75;;;11.37;83.03
59877;BME280;74472;51.140;17.184;2024-03-23T05:23:39;99051.91;;;11.40;83.24
59877;BME280;74472;51.140;17.184;2024-03-23T05:26:05;99053.44;;;11.43;83.25
59877;BME280;74472;51.140;17.184;2024-03-23T05:28:30;99055.09;;;11.44;83.16
59877;BME280;74472;51.140;17.184;2024-03-23T05:30:55;99048.41;;;11.49;82.91
59877;BME280;74472;51.140;17.184;2024-03-23T05:33:22;99051.97;;;11.58;83.19
59877;BME280;74472;51.140;17.184;2024-03-23T05:35:56;99049.00;;;11.61;83.11
59877;BME280;74472;51.140;17.184;2024-03-23T05:38:22;99041.41;;;11.58;83.18
59877;BME280;74472;51.140;17.184;2024-03-23T05:40:57;99030.84;;;11.58;82.89
59877;BME280;74472;51.140;17.184;2024-03-23T05:43:23;99032.50;;;11.59;83.08
59877;BME280;74472;51.140;17.184;2024-03-23T05:45:58;99035.66;;;11.63;83.09
59877;BME280;74472;51.140;17.184;2024-03-23T05:48:25;99029.84;;;11.59;82.76
59877;BME280;74472;51.140;17.184;2024-03-23T05:50:51;99028.09;;;11.50;82.96
59877;BME280;74472;51.140;17.184;2024-03-23T05:53:17;99032.16;;;11.44;82.99
59877;BME280;74472;51.140;17.184;2024-03-23T05:55:43;99022.50;;;11.35;83.36
59877;BME280;74472;51.140;17.184;2024-03-23T05:58:09;99018.34;;;11.33;83.17
59877;BME280;74472;51.140;17.184;2024-03-23T06:00:34;99021.94;;;11.32;83.59
59877;BME280;74472;51.140;17.184;2024-03-23T06:03:00;99021.28;;;11.30;83.72
59877;BME280;74472;51.140;17.184;2024-03-23T06:05:25;99012.94;;;11.24;83.80
59877;BME280;74472;51.140;17.184;2024-03-23T06:07:51;99015.75;;;11.23;83.84
59877;BME280;74472;51.140;17.184;2024-03-23T06:10:16;99012.00;;;11.25;84.29
59877;BME280;74472;51.140;17.184;2024-03-23T06:12:42;99010.69;;;11.30;84.18
59877;BME280;74472;51.140;17.184;2024-03-23T06:15:07;99001.19;;;11.37;84.05
59877;BME280;74472;51.140;17.184;2024-03-23T06:17:36;99001.72;;;11.40;84.20
59877;BME280;74472;51.140;17.184;2024-03-23T06:20:01;99010.72;;;11.47;84.09
59877;BME280;74472;51.140;17.184;2024-03-23T06:22:26;99015.41;;;11.54;83.98
59877;BME280;74472;51.140;17.184;2024-03-23T06:24:52;99014.97;;;11.58;84.18
59877;BME280;74472;51.140;17.184;2024-03-23T06:27:17;99024.84;;;11.56;84.33
59877;BME280;74472;51.140;17.184;2024-03-23T06:29:42;99029.53;;;11.62;84.19
59877;BME280;74472;51.140;17.184;2024-03-23T06:32:07;99036.34;;;11.65;83.88
59877;BME280;74472;51.140;17.184;2024-03-23T06:34:33;99034.84;;;11.62;84.07
59877;BME280;74472;51.140;17.184;2024-03-23T06:36:58;99030.38;;;11.63;84.48
59877;BME280;74472;51.140;17.184;2024-03-23T06:39:23;99018.28;;;11.60;84.38
59877;BME280;74472;51.140;17.184;2024-03-23T06:41:53;99002.13;;;11.63;84.38
59877;BME280;74472;51.140;17.184;2024-03-23T06:44:19;98991.78;;;11.70;84.74
59877;BME280;74472;51.140;17.184;2024-03-23T06:46:45;98979.41;;;11.70;83.98
59877;BME280;74472;51.140;17.184;2024-03-23T06:49:10;98964.53;;;11.69;84.40
59877;BME280;74472;51.140;17.184;2024-03-23T06:51:36;98964.78;;;11.76;84.46
59877;BME280;74472;51.140;17.184;2024-03-23T06:54:05;98956.97;;;11.74;84.51
59877;BME280;74472;51.140;17.184;2024-03-23T06:56:31;98953.97;;;11.69;84.37
59877;BME280;74472;51.140;17.184;2024-03-23T06:58:57;98951.63;;;11.66;84.37
59877;BME280;74472;51.140;17.184;2024-03-23T07:01:22;98951.94;;;11.63;84.83
59877;BME280;74472;51.140;17.184;2024-03-23T07:03:47;98955.28;;;11.65;85.10
59877;BME280;74472;51.140;17.184;2024-03-23T07:06:13;98952.75;;;11.64;85.25
59877;BME280;74472;51.140;17.184;2024-03-23T07:08:38;98951.25;;;11.61;85.30
59877;BME280;74472;51.140;17.184;2024-03-23T07:11:04;98935.84;;;11.57;85.65
59877;BME280;74472;51.140;17.184;2024-03-23T07:13:30;98935.03;;;11.56;85.51
59877;BME280;74472;51.140;17.184;2024-03-23T07:15:55;98922.50;;;11.58;85.92
59877;BME280;74472;51.140;17.184;2024-03-23T07:18:21;98914.13;;;11.63;86.20
59877;BME280;74472;51.140;17.184;2024-03-23T07:20:53;98905.06;;;11.65;85.88
59877;BME280;74472;51.140;17.184;2024-03-23T07:23:19;98906.72;;;11.66;85.83
59877;BME280;74472;51.140;17.184;2024-03-23T07:25:44;98901.25;;;11.68;85.91
59877;BME280;74472;51.140;17.184;2024-03-23T07:28:09;98892.22;;;11.70;85.92
59877;BME280;74472;51.140;17.184;2024-03-23T07:30:35;98890.78;;;11.76;86.17
59877;BME280;74472;51.140;17.184;2024-03-23T07:33:00;98886.84;;;11.80;86.24
59877;BME280;74472;51.140;17.184;2024-03-23T07:35:26;98880.81;;;11.88;86.01
59877;BME280;74472;51.140;17.184;2024-03-23T07:37:51;98874.59;;;11.97;86.29
59877;BME280;74472;51.140;17.184;2024-03-23T07:40:16;98877.59;;;12.02;85.71
59877;BME280;74472;51.140;17.184;2024-03-23T07:42:42;98871.06;;;12.14;85.48
59877;BME280;74472;51.140;17.184;2024-03-23T07:45:07;98862.50;;;12.20;85.24
59877;BME280;74472;51.140;17.184;2024-03-23T07:47:34;98862.69;;;12.27;84.98
59877;BME280;74472;51.140;17.184;2024-03-23T07:49:59;98861.09;;;12.34;84.92
59877;BME280;74472;51.140;17.184;2024-03-23T07:52:28;98860.13;;;12.43;84.94
59877;BME280;74472;51.140;17.184;2024-03-23T07:54:53;98853.88;;;12.53;84.97
59877;BME280;74472;51.140;17.184;2024-03-23T07:57:19;98831.75;;;12.62;84.85
59877;BME280;74472;51.140;17.184;2024-03-23T07:59:44;98836.09;;;12.71;84.11
59877;BME280;74472;51.140;17.184;2024-03-23T08:02:09;98825.38;;;12.81;84.61
59877;BME280;74472;51.140;17.184;2024-03-23T08:04:35;98816.47;;;12.90;83.50
59877;BME280;74472;51.140;17.184;2024-03-23T08:07:01;98805.50;;;12.93;82.94
59877;BME280;74472;51.140;17.184;2024-03-23T08:09:26;98807.84;;;12.96;82.61
59877;BME280;74472;51.140;17.184;2024-03-23T08:11:51;98808.50;;;12.98;82.47
59877;BME280;74472;51.140;17.184;2024-03-23T08:14:17;98798.28;;;13.03;82.42
59877;BME280;74472;51.140;17.184;2024-03-23T08:16:42;98799.28;;;13.10;82.57
59877;BME280;74472;51.140;17.184;2024-03-23T08:19:13;98799.25;;;13.19;82.34
59877;BME280;74472;51.140;17.184;2024-03-23T08:21:38;98788.19;;;13.23;82.03
59877;BME280;74472;51.140;17.184;2024-03-23T08:24:04;98792.00;;;13.29;82.21
59877;BME280;74472;51.140;17.184;2024-03-23T08:26:30;98787.19;;;13.32;81.74
59877;BME280;74472;51.140;17.184;2024-03-23T08:28:55;98780.41;;;13.38;81.90
59877;BME280;74472;51.140;17.184;2024-03-23T08:31:21;98782.41;;;13.44;81.99
59877;BME280;74472;51.140;17.184;2024-03-23T08:33:46;98770.66;;;13.47;81.88
59877;BME280;74472;51.140;17.184;2024-03-23T08:36:12;98753.25;;;13.52;81.57
59877;BME280;74472;51.140;17.184;2024-03-23T08:38:39;98747.59;;;13.64;82.33
59877;BME280;74472;51.140;17.184;2024-03-23T08:41:09;98737.63;;;13.82;82.56
59877;BME280;74472;51.140;17.184;2024-03-23T08:43:39;98743.34;;;13.94;80.61
59877;BME280;74472;51.140;17.184;2024-03-23T08:46:08;98740.69;;;14.02;81.09
59877;BME280;74472;51.140;17.184;2024-03-23T08:48:35;98726.22;;;14.13;81.10
59877;BME280;74472;51.140;17.184;2024-03-23T08:51:02;98726.13;;;14.29;81.04
59877;BME280;74472;51.140;17.184;2024-03-23T08:53:29;98711.63;;;14.40;79.76
59877;BME280;74472;51.140;17.184;2024-03-23T08:55:55;98697.19;;;14.42;80.11
59877;BME280;74472;51.140;17.184;2024-03-23T08:58:21;98697.69;;;14.46;79.95
59877;BME280;74472;51.140;17.184;2024-03-23T09:00:47;98694.00;;;14.47;78.97
59877;BME280;74472;51.140;17.184;2024-03-23T09:03:12;98692.19;;;14.47;78.95
59877;BME280;74472;51.140;17.184;2024-03-23T09:05:40;98700.50;;;14.44;78.67
59877;BME280;74472;51.140;17.184;2024-03-23T09:08:06;98694.19;;;14.45;78.53
59877;BME280;74472;51.140;17.184;2024-03-23T09:10:34;98689.25;;;14.42;78.69
59877;BME280;74472;51.140;17.184;2024-03-23T09:13:00;98685.09;;;14.40;78.35
59877;BME280;74472;51.140;17.184;2024-03-23T09:15:25;98676.78;;;14.43;78.42
59877;BME280;74472;51.140;17.184;2024-03-23T09:17:50;98674.16;;;14.43;78.36
59877;BME280;74472;51.140;17.184;2024-03-23T09:20:15;98666.38;;;14.41;77.52
59877;BME280;74472;51.140;17.184;2024-03-23T09:22:41;98663.88;;;14.40;77.48
59877;BME280;74472;51.140;17.184;2024-03-23T09:25:06;98656.47;;;14.35;76.92
59877;BME280;74472;51.140;17.184;2024-03-23T09:27:32;98643.91;;;14.29;76.53
59877;BME280;74472;51.140;17.184;2024-03-23T09:29:57;98644.06;;;14.27;76.75
59877;BME280;74472;51.140;17.184;2024-03-23T09:32:22;98644.25;;;14.26;76.58
59877;BME280;74472;51.140;17.184;2024-03-23T09:34:48;98646.22;;;14.24;76.72
59877;BME280;74472;51.140;17.184;2024-03-23T09:37:13;98639.09;;;14.24;76.66
59877;BME280;74472;51.140;17.184;2024-03-23T09:39:38;98629.50;;;14.23;76.48
59877;BME280;74472;51.140;17.184;2024-03-23T09:42:04;98631.47;;;14.21;76.76
59877;BME280;74472;51.140;17.184;2024-03-23T09:44:31;98619.91;;;14.22;76.94
59877;BME280;74472;51.140;17.184;2024-03-23T09:46:56;98612.91;;;14.21;76.63
59877;BME280;74472;51.140;17.184;2024-03-23T09:49:21;98604.31;;;14.19;76.82
59877;BME280;74472;51.140;17.184;2024-03-23T09:51:47;98601.31;;;14.22;76.92
59877;BME280;74472;51.140;17.184;2024-03-23T09:54:12;98586.88;;;14.25;76.89
59877;BME280;74472;51.140;17.184;2024-03-23T09:56:37;98585.34;;;14.30;77.21
59877;BME280;74472;51.140;17.184;2024-03-23T09:59:03;98579.97;;;14.39;76.98
59877;BME280;74472;51.140;17.184;2024-03-23T10:01:32;98576.63;;;14.45;76.90
59877;BME280;74472;51.140;17.184;2024-03-23T10:03:57;98571.78;;;14.48;77.37
59877;BME280;74472;51.140;17.184;2024-03-23T10:06:22;98559.00;;;14.52;77.01
59877;BME280;74472;51.140;17.184;2024-03-23T10:08:52;98554.63;;;14.59;76.41
59877;BME280;74472;51.140;17.184;2024-03-23T10:11:19;98547.13;;;14.63;75.97
59877;BME280;74472;51.140;17.184;2024-03-23T10:13:44;98540.44;;;14.67;75.61
59877;BME280;74472;51.140;17.184;2024-03-23T10:16:12;98530.28;;;14.70;76.29
59877;BME280;74472;51.140;17.184;2024-03-23T10:18:38;98529.75;;;14.75;75.96
59877;BME280;74472;51.140;17.184;2024-03-23T10:21:07;98532.66;;;14.80;75.78
59877;BME280;74472;51.140;17.184;2024-03-23T10:23:36;98525.81;;;14.86;75.88
59877;BME280;74472;51.140;17.184;2024-03-23T10:28:43;98517.00;;;15.00;75.99
59877;BME280;74472;51.140;17.184;2024-03-23T10:31:15;98514.72;;;15.12;75.68
59877;BME280;74472;51.140;17.184;2024-03-23T10:33:47;98511.34;;;15.18;75.41
59877;BME280;74472;51.140;17.184;2024-03-23T10:36:13;98518.84;;;15.29;76.28
59877;BME280;74472;51.140;17.184;2024-03-23T10:38:41;98507.09;;;15.38;75.36
59877;BME280;74472;51.140;17.184;2024-03-23T10:41:08;98505.34;;;15.45;74.88
59877;BME280;74472;51.140;17.184;2024-03-23T10:43:36;98494.97;;;15.51;75.46
59877;BME280;74472;51.140;17.184;2024-03-23T10:46:01;98500.16;;;15.59;75.70
59877;BME280;74472;51.140;17.184;2024-03-23T10:48:27;98494.91;;;15.65;75.22
59877;BME280;74472;51.140;17.184;2024-03-23T10:50:53;98492.63;;;15.77;75.86
59877;BME280;74472;51.140;17.184;2024-03-23T10:53:19;98490.34;;;15.95;76.12
59877;BME280;74472;51.140;17.184;2024-03-23T10:55:46;98478.44;;;16.13;75.92
59877;BME280;74472;51.140;17.184;2024-03-23T10:58:11;98475.25;;;16.24;75.30
59877;BME280;74472;51.140;17.184;2024-03-23T11:00:38;98482.72;;;16.35;74.95
59877;BME280;74472;51.140;17.184;2024-03-23T11:05:58;98466.00;;;16.48;74.10
59877;BME280;74472;51.140;17.184;2024-03-23T11:08:37;98458.84;;;16.49;73.89
59877;BME280;74472;51.140;17.184;2024-03-23T11:11:20;98442.88;;;16.49;73.80
59877;BME280;74472;51.140;17.184;2024-03-23T11:13:50;98443.09;;;16.54;73.67
59877;BME280;74472;51.140;17.184;2024-03-23T11:16:23;98447.63;;;16.53;74.09
59877;BME280;74472;51.140;17.184;2024-03-23T11:18:51;98433.09;;;16.56;73.94
59877;BME280;74472;51.140;17.184;2024-03-23T11:21:51;98437.00;;;16.60;73.59
59877;BME280;74472;51.140;17.184;2024-03-23T11:24:16;98416.34;;;16.62;73.37
59877;BME280;74472;51.140;17.184;2024-03-23T11:26:42;98421.50;;;16.70;73.28
59877;BME280;74472;51.140;17.184;2024-03-23T11:29:11;98429.28;;;16.72;72.91
59877;BME280;74472;51.140;17.184;2024-03-23T11:31:37;98426.25;;;16.75;73.07
59877;BME280;74472;51.140;17.184;2024-03-23T11:34:06;98415.00;;;16.79;72.64
59877;BME280;74472;51.140;17.184;2024-03-23T11:36:32;98404.56;;;16.84;72.54
59877;BME280;74472;51.140;17.184;2024-03-23T11:38:57;98412.41;;;16.93;72.91
59877;BME280;74472;51.140;17.184;2024-03-23T11:41:23;98404.88;;;17.03;73.11
59877;BME280;74472;51.140;17.184;2024-03-23T11:43:48;98401.03;;;17.19;72.81
59877;BME280;74472;51.140;17.184;2024-03-23T11:46:22;98392.66;;;17.28;71.72
59877;BME280;74472;51.140;17.184;2024-03-23T11:48:50;98383.22;;;17.32;71.14
59877;BME280;74472;51.140;17.184;2024-03-23T11:51:18;98388.34;;;17.34;70.08
59877;BME280;74472;51.140;17.184;2024-03-23T11:53:44;98375.84;;;17.28;69.29
59877;BME280;74472;51.140;17.184;2024-03-23T11:56:10;98373.75;;;17.23;68.41
59877;BME280;74472;51.140;17.184;2024-03-23T11:58:35;98371.72;;;17.19;67.96
59877;BME280;74472;51.140;17.184;2024-03-23T12:01:04;98375.19;;;17.13;68.22
59877;BME280;74472;51.140;17.184;2024-03-23T12:03:31;98377.63;;;17.07;67.86
59877;BME280;74472;51.140;17.184;2024-03-23T12:05:59;98373.53;;;17.05;67.73
59877;BME280;74472;51.140;17.184;2024-03-23T12:08:29;98392.56;;;17.02;67.12
59877;BME280;74472;51.140;17.184;2024-03-23T12:11:08;98386.19;;;16.96;66.58
59877;BME280;74472;51.140;17.184;2024-03-23T12:13:34;98400.31;;;16.90;66.36
59877;BME280;74472;51.140;17.184;2024-03-23T12:18:35;98421.84;;;16.88;66.84
59877;BME280;74472;51.140;17.184;2024-03-23T12:21:01;98413.16;;;16.80;66.88
59877;BME280;74472;51.140;17.184;2024-03-23T12:23:26;98411.25;;;16.74;66.34
59877;BME280;74472;51.140;17.184;2024-03-23T12:25:51;98428.66;;;16.70;66.25
59877;BME280;74472;51.140;17.184;2024-03-23T12:28:17;98414.28;;;16.64;66.43
59877;BME280;74472;51.140;17.184;2024-03-23T12:30:42;98411.19;;;16.60;66.87
59877;BME280;74472;51.140;17.184;2024-03-23T12:33:08;98416.72;;;16.59;66.28
59877;BME280;74472;51.140;17.184;2024-03-23T12:35:33;98419.97;;;16.54;66.06
59877;BME280;74472;51.140;17.184;2024-03-23T12:37:59;98427.53;;;16.51;65.75
59877;BME280;74472;51.140;17.184;2024-03-23T12:40:24;98432.03;;;16.50;65.87
59877;BME280;74472;51.140;17.184;2024-03-23T12:42:49;98414.81;;;16.46;65.03
59877;BME280;74472;51.140;17.184;2024-03-23T12:45:15;98407.59;;;16.40;65.18
59877;BME280;74472;51.140;17.184;2024-03-23T12:47:40;98398.78;;;16.39;65.71
59877;BME280;74472;51.140;17.184;2024-03-23T12:50:06;98392.22;;;16.35;66.07
59877;BME280;74472;51.140;17.184;2024-03-23T12:52:32;98397.28;;;16.30;65.20
59877;BME280;74472;51.140;17.184;2024-03-23T12:54:58;98418.53;;;16.24;65.13
59877;BME280;74472;51.140;17.184;2024-03-23T12:57:26;98444.66;;;16.13;64.77
59877;BME280;74472;51.140;17.184;2024-03-23T12:59:52;98406.72;;;16.05;65.24
59877;BME280;74472;51.140;17.184;2024-03-23T13:02:20;98425.13;;;16.00;65.18
59877;BME280;74472;51.140;17.184;2024-03-23T13:04:54;98445.38;;;16.01;65.21
59877;BME280;74472;51.140;17.184;2024-03-23T13:07:21;98435.13;;;15.98;64.56
59877;BME280;74472;51.140;17.184;2024-03-23T13:09:47;98462.09;;;15.94;64.91
59877;BME280;74472;51.140;17.184;2024-03-23T13:12:12;98461.47;;;15.92;64.79
59877;BME280;74472;51.140;17.184;2024-03-23T13:14:41;98486.34;;;15.85;64.55
59877;BME280;74472;51.140;17.184;2024-03-23T13:17:07;98507.25;;;15.66;65.98
59877;BME280;74472;51.140;17.184;2024-03-23T13:19:33;98526.88;;;15.51;65.61
59877;BME280;74472;51.140;17.184;2024-03-23T13:21:59;98542.66;;;15.22;65.51
59877;BME280;74472;51.140;17.184;2024-03-23T13:24:26;98572.69;;;14.93;65.01
59877;BME280;74472;51.140;17.184;2024-03-23T13:26:52;98547.41;;;14.68;65.97
59877;BME280;74472;51.140;17.184;2024-03-23T13:29:17;98573.56;;;14.56;66.22
59877;BME280;74472;51.140;17.184;2024-03-23T13:31:43;98564.94;;;14.31;66.86
59877;BME280;74472;51.140;17.184;2024-03-23T13:34:08;98575.38;;;14.10;67.47
59877;BME280;74472;51.140;17.184;2024-03-23T13:36:34;98551.50;;;13.87;68.50
59877;BME280;74472;51.140;17.184;2024-03-23T13:38:59;98567.63;;;13.77;69.25
59877;BME280;74472;51.140;17.184;2024-03-23T13:41:24;98587.63;;;13.56;69.74
59877;BME280;74472;51.140;17.184;2024-03-23T13:43:50;98583.56;;;13.37;70.56
59877;BME280;74472;51.140;17.184;2024-03-23T13:46:15;98594.34;;;13.28;70.85